»·PEaware :: N148WT KSNA-KSNA

N148WT :: KSNA-KSNA

FLIGHT INFORMATION

Flight Status: Arrived
Operator: Privately registered:
United States
More flights under this callsign
Pilot: Vlad D. (11271)
Aircraft: Unknown
(B60T)
More flights by this aircraft type
Origin: KSNA John Wayne-Orange Co
United States
Destination: KSNA John Wayne-Orange Co
United States
More flights between these airports :: More routes between these airports
Route: SLI
File this flight plan on PilotEdge
Remarks: IFR first time practice
Altitude:
(Current/Filed)
4,000ft
Speed:
(Current/Filed)
140kts
Departed: 15-May-16 06:19 PM
Arrived: 15-May-16 06:39 PM
Distance/Time
Traveled:
0nm/0:20
Distance/Time
To Go:
Arrived

Flight Plot

Page will automatically refresh every two minutes.


Map Options




Map Legend


Flown Route
Filed Route
Departure Airport
Arrival Airport
Navaid (VOR, NDB)
Fix

Horizontal Profiles

Position Reports

Time Latitude Longitude Heading Altitude Ground
Speed
15-May-16 17:40 33.670225 -117.874694 23 59ft 0kts
15-May-16 17:41 33.670225 -117.874694 23 59ft 0kts
15-May-16 17:42 33.670225 -117.874694 23 59ft 0kts
15-May-16 17:43 33.670225 -117.874694 23 59ft 0kts
15-May-16 17:44 33.670225 -117.874694 23 59ft 0kts
15-May-16 17:45 33.670225 -117.874694 23 59ft 0kts
15-May-16 17:46 33.670228 -117.874693 23 59ft 0kts
15-May-16 17:47 33.670231 -117.874692 23 59ft 0kts
15-May-16 17:48 33.670233 -117.874690 23 59ft 0kts
15-May-16 17:49 33.670236 -117.874689 23 59ft 0kts
15-May-16 17:50 33.670239 -117.874687 23 59ft 0kts
15-May-16 17:51 33.670242 -117.874686 23 59ft 0kts
15-May-16 17:52 33.670244 -117.874684 23 59ft 0kts
15-May-16 17:53 33.670247 -117.874683 23 59ft 0kts
15-May-16 17:54 33.670250 -117.874682 23 59ft 0kts
15-May-16 17:55 33.670253 -117.874680 23 59ft 0kts
15-May-16 17:56 33.670255 -117.874679 23 59ft 0kts
15-May-16 17:57 33.670258 -117.874677 23 59ft 0kts
15-May-16 18:00 33.670268 -117.874672 23 59ft 0kts
15-May-16 18:01 33.670271 -117.874671 23 59ft 0kts
15-May-16 18:02 33.670273 -117.874669 23 59ft 0kts
15-May-16 18:03 33.670276 -117.874668 23 59ft 0kts
15-May-16 18:04 33.670280 -117.873880 87 59ft 3kts
15-May-16 18:05 33.671606 -117.872913 28 59ft 15kts
15-May-16 18:06 33.675131 -117.870743 25 59ft 13kts
15-May-16 18:07 33.676552 -117.869266 226 59ft 0kts
15-May-16 18:08 33.676549 -117.869270 226 59ft 0kts
15-May-16 18:09 33.676544 -117.869276 226 59ft 0kts
15-May-16 18:10 33.676537 -117.869285 226 59ft 0kts
15-May-16 18:11 33.676534 -117.869289 226 59ft 0kts
15-May-16 18:12 33.676638 -117.869647 0 59ft 7kts
15-May-16 18:14 33.679671 -117.867957 28 59ft 12kts
15-May-16 18:15 33.680852 -117.866454 114 59ft 0kts
15-May-16 18:16 33.680850 -117.866450 114 59ft 0kts
15-May-16 18:17 33.680828 -117.866392 114 59ft 2kts
15-May-16 18:18 33.673401 -117.870221 206 129ft 126kts
15-May-16 18:19 33.647300 -117.902707 237 1708ft 127kts
15-May-16 18:20 33.627946 -117.935437 232 3057ft 116kts
15-May-16 18:21 33.608443 -117.969219 230 4021ft 138kts
15-May-16 18:22 33.596609 -118.004251 343 3866ft 142kts
15-May-16 18:23 33.630631 -117.999258 4 4096ft 138kts
15-May-16 18:24 33.669313 -117.992764 34 3991ft 142kts
15-May-16 18:25 33.701372 -117.964946 33 4004ft 141kts
15-May-16 18:26 33.734287 -117.938749 25 4022ft 140kts
15-May-16 18:27 33.767785 -117.913967 30 4015ft 141kts
15-May-16 18:28 33.800510 -117.888442 30 3989ft 138kts
15-May-16 18:29 33.831927 -117.862078 32 3977ft 138kts
15-May-16 18:30 33.863304 -117.836068 36 4001ft 136kts
15-May-16 18:31 33.870460 -117.800846 162 3964ft 131kts
15-May-16 18:32 33.832327 -117.789589 152 3138ft 157kts
15-May-16 18:33 33.796652 -117.789780 207 2904ft 114kts
15-May-16 18:34 33.767992 -117.809174 210 1927ft 115kts
15-May-16 18:35 33.741975 -117.826917 209 1330ft 105kts
15-May-16 18:36 33.713794 -117.844097 208 853ft 114kts
15-May-16 18:37 33.686965 -117.861442 212 199ft 98kts
15-May-16 18:38 33.675840 -117.869704 300 59ft 7kts
15-May-16 18:39 33.675890 -117.869808 299 59ft 0kts
15-May-16 18:40 33.674762 -117.870952 207 59ft 8kts
15-May-16 18:41 33.673107 -117.872443 306 59ft 8kts
15-May-16 18:42 33.673421 -117.872877 295 59ft 0kts

Navigation Log

Ident Type
Flight plan parsing failed, navigation log unavailable